createdAt,value
2022-08-25T00:00:30.868Z,96.72
2022-08-25T00:03:13.901Z,96.62
2022-08-25T00:05:43.117Z,96.44
2022-08-25T00:08:11.877Z,96.66
2022-08-25T00:10:41.861Z,97.00
2022-08-25T00:13:10.805Z,97.17
2022-08-25T00:15:39.376Z,97.35
2022-08-25T00:18:19.980Z,97.04
2022-08-25T00:20:49.323Z,96.55
2022-08-25T00:23:18.417Z,95.57
2022-08-25T00:25:47.262Z,95.52
2022-08-25T00:28:16.348Z,95.83
2022-08-25T00:30:45.602Z,96.04
2022-08-25T00:33:14.425Z,95.95
2022-08-25T00:35:43.611Z,95.75
2022-08-25T00:38:13.421Z,96.07
2022-08-25T00:40:43.441Z,95.99
2022-08-25T00:43:13.304Z,96.16
2022-08-25T00:45:42.145Z,96.38
2022-08-25T00:48:10.924Z,96.68
2022-08-25T00:50:39.867Z,96.61
2022-08-25T00:53:09.247Z,96.34
2022-08-25T00:55:41.600Z,96.36
2022-08-25T00:58:17.890Z,96.50
2022-08-25T01:00:49.214Z,96.71
2022-08-25T01:03:19.260Z,96.25
2022-08-25T01:05:49.195Z,96.07
2022-08-25T01:08:20.538Z,96.15
2022-08-25T01:10:50.413Z,96.38
2022-08-25T01:13:26.118Z,96.25
2022-08-25T01:15:56.499Z,96.45
2022-08-25T01:18:26.697Z,96.10
2022-08-25T01:20:57.016Z,96.41
2022-08-25T01:23:26.273Z,96.83
2022-08-25T01:26:01.843Z,96.79
2022-08-25T01:28:30.759Z,96.82
2022-08-25T01:30:59.837Z,96.76
2022-08-25T01:33:28.838Z,96.53
2022-08-25T01:35:57.282Z,96.09
2022-08-25T01:38:26.084Z,96.10
2022-08-25T01:40:54.830Z,96.12
2022-08-25T01:43:36.324Z,96.29
2022-08-25T01:46:05.423Z,96.50
2022-08-25T01:48:34.172Z,96.49
2022-08-25T01:51:02.917Z,96.43
2022-08-25T01:53:33.676Z,96.23
2022-08-25T01:56:11.091Z,96.57
2022-08-25T01:58:43.599Z,96.82
2022-08-25T02:01:15.400Z,96.52
2022-08-25T02:03:47.178Z,96.62
2022-08-25T02:06:21.733Z,96.75
2022-08-25T02:09:01.066Z,96.92
2022-08-25T02:11:30.893Z,97.07
2022-08-25T02:14:00.387Z,96.66
2022-08-25T02:16:31.553Z,96.79
2022-08-25T02:19:00.613Z,96.82
2022-08-25T02:21:29.813Z,96.99
2022-08-25T02:23:58.846Z,96.93
2022-08-25T02:26:28.720Z,96.87
2022-08-25T02:28:57.430Z,96.87
2022-08-25T02:31:26.386Z,96.75
2022-08-25T02:33:55.069Z,96.92
2022-08-25T02:36:26.302Z,96.85
2022-08-25T02:38:55.096Z,96.77
2022-08-25T02:41:28.855Z,96.64
2022-08-25T02:44:02.007Z,96.50
2022-08-25T02:46:30.979Z,96.56
2022-08-25T02:48:59.527Z,96.84
2022-08-25T02:51:29.416Z,96.68
2022-08-25T02:53:59.059Z,96.67
2022-08-25T02:56:28.509Z,96.94
2022-08-25T02:58:57.670Z,96.92
2022-08-25T03:01:28.794Z,96.97
2022-08-25T03:03:58.273Z,97.08
2022-08-25T03:06:27.478Z,97.21
2022-08-25T03:08:56.623Z,97.23
2022-08-25T03:11:27.596Z,97.26
2022-08-25T03:13:56.374Z,96.99
2022-08-25T03:16:27.704Z,96.41
2022-08-25T03:18:55.989Z,96.63
2022-08-25T03:21:25.059Z,97.02
2022-08-25T03:23:53.793Z,97.08
2022-08-25T03:26:55.588Z,97.25
2022-08-25T03:29:29.078Z,97.16
2022-08-25T03:31:59.175Z,97.34
2022-08-25T03:34:58.452Z,97.08
2022-08-25T03:37:27.056Z,97.12
2022-08-25T03:39:56.101Z,97.13
2022-08-25T03:42:25.838Z,97.14
2022-08-25T03:44:55.427Z,97.33
2022-08-25T03:47:25.785Z,97.59
2022-08-25T03:49:54.590Z,97.65
2022-08-25T03:52:23.338Z,97.70
2022-08-25T03:54:52.436Z,97.68
2022-08-25T03:57:21.027Z,97.78
2022-08-25T03:59:49.882Z,97.76
2022-08-25T04:02:18.723Z,98.06
2022-08-25T04:04:47.660Z,98.15
2022-08-25T04:07:17.105Z,98.14
2022-08-25T04:09:45.964Z,97.68
2022-08-25T04:12:14.494Z,97.42
2022-08-25T04:14:43.437Z,97.15
2022-08-25T04:17:12.048Z,97.24
2022-08-25T04:19:40.705Z,97.18
2022-08-25T04:22:09.359Z,97.22
2022-08-25T04:24:38.213Z,97.55
2022-08-25T04:27:06.956Z,97.56
2022-08-25T04:29:35.813Z,97.53
2022-08-25T04:32:05.093Z,97.39
2022-08-25T04:34:33.778Z,97.39
2022-08-25T04:37:05.676Z,97.64
2022-08-25T04:39:33.615Z,97.74
2022-08-25T04:42:02.584Z,97.58
2022-08-25T04:44:33.588Z,97.49
2022-08-25T04:47:02.777Z,97.58
2022-08-25T04:49:31.623Z,97.45
2022-08-25T04:52:00.736Z,97.21
2022-08-25T04:54:29.572Z,97.30
2022-08-25T04:57:06.223Z,96.98
2022-08-25T04:59:37.619Z,97.07
2022-08-25T05:02:06.567Z,96.72
2022-08-25T05:04:37.127Z,95.86
2022-08-25T05:07:06.672Z,95.90
2022-08-25T05:09:37.094Z,96.02
2022-08-25T05:12:06.856Z,96.30
2022-08-25T05:14:35.664Z,96.45
2022-08-25T05:17:04.353Z,96.03
2022-08-25T05:19:33.569Z,96.03
2022-08-25T05:22:02.599Z,96.20
2022-08-25T05:24:31.230Z,96.31
2022-08-25T05:27:00.255Z,96.30
2022-08-25T05:29:29.138Z,96.55
2022-08-25T05:31:58.223Z,96.77
2022-08-25T05:34:26.652Z,96.85
2022-08-25T05:36:59.602Z,96.91
2022-08-25T05:39:31.777Z,97.11
2022-08-25T05:42:00.449Z,97.26
2022-08-25T05:44:30.840Z,97.12
2022-08-25T05:47:04.157Z,96.81
2022-08-25T05:49:32.714Z,96.69
2022-08-25T05:52:01.441Z,96.68
2022-08-25T05:54:31.071Z,96.21
2022-08-25T05:56:59.946Z,96.12
2022-08-25T05:59:29.586Z,96.03
2022-08-25T06:02:16.650Z,95.92
2022-08-25T06:04:45.749Z,95.53
2022-08-25T06:07:14.522Z,95.15
2022-08-25T06:09:45.847Z,94.93
2022-08-25T06:12:14.931Z,94.50
2022-08-25T06:14:44.586Z,94.38
2022-08-25T06:17:13.083Z,94.64
2022-08-25T06:19:41.777Z,94.32
2022-08-25T06:22:10.878Z,94.16
2022-08-25T06:24:39.508Z,93.83
2022-08-25T06:27:08.447Z,93.69
2022-08-25T06:29:37.048Z,93.41
2022-08-25T06:32:07.274Z,93.06
2022-08-25T06:34:36.034Z,92.37
2022-08-25T06:37:05.045Z,91.66
2022-08-25T06:39:33.865Z,91.09
2022-08-25T06:42:02.581Z,90.05
2022-08-25T06:44:31.780Z,89.64
2022-08-25T06:47:00.743Z,89.10
2022-08-25T06:49:31.914Z,88.52
2022-08-25T06:52:02.123Z,87.92
2022-08-25T06:54:30.908Z,87.33
2022-08-25T06:57:00.141Z,86.85
2022-08-25T06:59:32.288Z,86.51
2022-08-25T07:02:03.177Z,86.11
2022-08-25T07:04:32.999Z,85.80
2022-08-25T07:07:02.174Z,85.12
2022-08-25T07:09:31.483Z,84.73
2022-08-25T07:12:01.959Z,84.07
2022-08-25T07:14:30.676Z,82.95
2022-08-25T07:16:59.406Z,81.56
2022-08-25T07:19:28.152Z,80.33
2022-08-25T07:21:56.641Z,80.04
2022-08-25T07:24:25.617Z,79.59
2022-08-25T07:26:54.432Z,79.59
2022-08-25T07:29:31.901Z,78.82
2022-08-25T07:32:03.513Z,79.11
2022-08-25T07:34:51.912Z,79.55
2022-08-25T07:40:14.927Z,78.69
2022-08-25T07:42:43.672Z,78.17
2022-08-25T07:45:13.915Z,78.07
2022-08-25T07:47:45.784Z,77.18
2022-08-25T07:50:14.735Z,75.47
2022-08-25T07:52:43.290Z,74.75
2022-08-25T07:55:12.442Z,74.42
2022-08-25T07:57:49.865Z,74.15
2022-08-25T08:00:26.890Z,74.00
2022-08-25T08:02:56.046Z,74.10
2022-08-25T08:05:27.697Z,73.90
2022-08-25T08:07:55.702Z,73.39
2022-08-25T08:13:18.012Z,72.40
2022-08-25T08:15:47.855Z,71.73
2022-08-25T08:18:16.637Z,70.85
2022-08-25T08:20:46.462Z,70.18
2022-08-25T08:23:15.826Z,69.37
2022-08-25T08:25:44.446Z,68.49
2022-08-25T08:28:13.672Z,67.80
2022-08-25T08:30:53.387Z,67.80
2022-08-25T08:33:25.991Z,67.45
2022-08-25T08:36:05.284Z,67.26
2022-08-25T08:38:35.078Z,67.15
2022-08-25T08:42:07.697Z,66.69
2022-08-25T08:44:49.850Z,66.71
2022-08-25T08:47:31.138Z,66.20
2022-08-25T08:50:02.236Z,66.06
2022-08-25T08:52:52.517Z,65.89
2022-08-25T08:55:28.133Z,65.42
2022-08-25T08:58:00.551Z,65.65
2022-08-25T09:00:31.271Z,65.54
2022-08-25T09:03:05.143Z,64.89
2022-08-25T09:05:46.780Z,64.06
2022-08-25T09:08:20.516Z,63.17
2022-08-25T09:11:01.817Z,62.83
2022-08-25T09:13:45.591Z,62.29
2022-08-25T09:16:38.446Z,61.09
2022-08-25T09:19:24.533Z,60.85
2022-08-25T09:21:57.860Z,60.86
2022-08-25T09:24:45.238Z,60.34
2022-08-25T09:27:24.165Z,59.84
2022-08-25T09:30:05.517Z,59.77
2022-08-25T09:32:39.102Z,59.82
2022-08-25T09:35:15.086Z,59.49
2022-08-25T09:37:54.640Z,59.32
2022-08-25T09:40:23.958Z,59.14
2022-08-25T09:42:57.880Z,59.03
2022-08-25T09:45:40.131Z,59.29
2022-08-25T09:48:26.909Z,59.10
2022-08-25T09:51:01.809Z,58.73
2022-08-25T09:53:33.818Z,59.74
2022-08-25T09:56:06.910Z,59.94
2022-08-25T09:58:35.422Z,60.08
2022-08-25T10:01:14.053Z,59.81
2022-08-25T10:03:59.593Z,59.24
2022-08-25T10:06:34.013Z,59.18
2022-08-25T10:09:07.061Z,58.93
2022-08-25T10:11:41.617Z,59.04
2022-08-25T10:14:27.367Z,59.41
2022-08-25T10:17:14.359Z,59.75
2022-08-25T10:19:43.404Z,59.66
2022-08-25T10:22:20.759Z,59.42
2022-08-25T10:24:49.644Z,59.29
2022-08-25T10:27:30.893Z,58.91
2022-08-25T10:30:13.412Z,58.98
2022-08-25T10:33:02.834Z,59.86
2022-08-25T10:35:39.462Z,59.46
2022-08-25T10:38:27.274Z,59.29
2022-08-25T10:41:09.414Z,58.89
2022-08-25T10:43:45.516Z,58.19
2022-08-25T10:46:27.466Z,57.96
2022-08-25T10:49:13.189Z,57.28
2022-08-25T10:52:00.488Z,57.21
2022-08-25T10:54:46.532Z,57.17
2022-08-25T10:57:22.024Z,57.37
2022-08-25T11:00:00.569Z,57.05
2022-08-25T11:03:11.171Z,57.38
2022-08-25T11:05:46.004Z,57.82
2022-08-25T11:08:24.984Z,57.59
2022-08-25T11:10:59.859Z,57.86
2022-08-25T11:13:37.405Z,58.23
2022-08-25T11:16:17.621Z,58.76
2022-08-25T11:18:53.118Z,58.76
2022-08-25T11:21:26.897Z,58.86
2022-08-25T11:24:05.139Z,58.75
2022-08-25T11:26:37.747Z,59.37
2022-08-25T11:29:16.035Z,59.41
2022-08-25T11:31:52.833Z,59.45
2022-08-25T11:34:22.838Z,60.21
2022-08-25T11:36:57.005Z,60.51
2022-08-25T11:39:40.214Z,60.17
2022-08-25T11:42:25.893Z,60.43
2022-08-25T11:45:08.603Z,60.48
2022-08-25T11:48:09.543Z,60.32
2022-08-25T11:50:57.757Z,60.28
2022-08-25T11:53:28.984Z,60.05
2022-08-25T11:56:03.730Z,60.92
2022-08-25T11:58:38.097Z,61.63
2022-08-25T12:01:11.303Z,62.26
2022-08-25T12:04:14.836Z,62.73
2022-08-25T12:07:18.377Z,62.64
2022-08-25T12:10:24.906Z,63.07
2022-08-25T12:13:37.422Z,62.72
2022-08-25T12:16:07.103Z,62.39
2022-08-25T12:18:45.877Z,62.58
2022-08-25T12:21:29.976Z,63.05
2022-08-25T12:24:12.721Z,63.12
2022-08-25T12:26:51.363Z,63.10
2022-08-25T12:29:30.132Z,62.74
2022-08-25T12:32:22.641Z,61.82
2022-08-25T12:35:21.791Z,62.43
2022-08-25T12:38:03.981Z,62.60
2022-08-25T12:40:37.028Z,63.28
2022-08-25T12:43:09.781Z,63.47
2022-08-25T12:45:45.419Z,63.25
2022-08-25T12:49:04.321Z,63.15
2022-08-25T12:51:53.842Z,63.24
2022-08-25T12:54:32.422Z,63.49
2022-08-25T12:57:14.312Z,63.43
2022-08-25T12:59:49.630Z,62.50
2022-08-25T13:02:52.001Z,61.15
2022-08-25T13:05:47.326Z,61.53
2022-08-25T13:08:46.609Z,60.61
2022-08-25T13:11:30.736Z,61.33
2022-08-25T13:14:07.813Z,61.65
2022-08-25T13:16:39.082Z,60.99
2022-08-25T13:19:18.416Z,61.12
2022-08-25T13:21:48.405Z,62.37
2022-08-25T13:24:22.297Z,62.26
2022-08-25T13:26:55.203Z,61.51
2022-08-25T13:29:27.244Z,59.81
2022-08-25T13:31:59.350Z,60.02
2022-08-25T13:34:34.833Z,60.40
2022-08-25T13:37:27.655Z,60.85
2022-08-25T13:40:10.988Z,60.28
2022-08-25T13:42:42.515Z,59.26
2022-08-25T13:45:17.066Z,59.37
2022-08-25T13:47:47.668Z,60.19
2022-08-25T13:50:28.778Z,60.56
2022-08-25T13:52:59.707Z,60.75
2022-08-25T13:55:38.409Z,60.79
2022-08-25T13:58:24.809Z,60.73
2022-08-25T14:01:19.963Z,60.78
2022-08-25T14:04:17.514Z,59.37
2022-08-25T14:06:47.594Z,59.77
2022-08-25T14:09:27.987Z,59.01
2022-08-25T14:11:58.023Z,59.17
2022-08-25T14:14:35.377Z,59.75
2022-08-25T14:17:22.144Z,59.48
2022-08-25T14:20:00.304Z,59.83
2022-08-25T14:22:45.912Z,59.21
2022-08-25T14:25:15.456Z,59.24
2022-08-25T14:28:10.938Z,59.23
2022-08-25T14:30:52.273Z,59.08
2022-08-25T14:33:24.913Z,59.62
2022-08-25T14:35:57.682Z,59.13
2022-08-25T14:38:31.192Z,58.76
2022-08-25T14:41:00.730Z,58.26
2022-08-25T14:43:31.750Z,58.46
2022-08-25T14:46:03.236Z,58.01
2022-08-25T14:48:34.402Z,58.24
2022-08-25T14:51:04.851Z,58.29
2022-08-25T14:53:34.637Z,58.47
2022-08-25T14:56:08.640Z,58.60
2022-08-25T14:58:50.968Z,58.90
2022-08-25T15:01:29.206Z,58.69
2022-08-25T15:04:07.349Z,59.81
2022-08-25T15:06:38.845Z,60.38
2022-08-25T15:09:10.780Z,60.41
2022-08-25T15:11:44.494Z,60.35
2022-08-25T15:14:15.738Z,60.86
2022-08-25T15:16:49.616Z,61.36
2022-08-25T15:19:20.445Z,61.64
2022-08-25T15:21:50.678Z,61.52
2022-08-25T15:24:22.440Z,61.35
2022-08-25T15:26:55.486Z,61.33
2022-08-25T15:29:26.733Z,61.08
2022-08-25T15:31:55.664Z,60.92
2022-08-25T15:34:24.542Z,61.30
2022-08-25T15:36:53.466Z,61.46
2022-08-25T15:39:22.372Z,61.56
2022-08-25T15:41:51.758Z,61.33
2022-08-25T15:44:21.295Z,61.55
2022-08-25T15:46:50.449Z,60.98
2022-08-25T15:49:23.107Z,60.96
2022-08-25T15:51:53.214Z,60.28
2022-08-25T15:54:26.843Z,60.06
2022-08-25T15:56:56.540Z,60.39
2022-08-25T15:59:26.350Z,60.53
2022-08-25T16:01:58.699Z,60.22
2022-08-25T16:04:28.773Z,60.32
2022-08-25T16:06:58.694Z,60.40
2022-08-25T16:09:27.220Z,60.38
2022-08-25T16:11:58.996Z,59.62
2022-08-25T16:14:31.331Z,58.95
2022-08-25T16:17:00.024Z,59.07
2022-08-25T16:19:29.236Z,59.19
2022-08-25T16:21:58.469Z,59.28
2022-08-25T16:24:28.463Z,59.38
2022-08-25T16:27:11.403Z,59.75
2022-08-25T16:29:42.211Z,60.09
2022-08-25T16:32:13.317Z,60.41
2022-08-25T16:34:42.223Z,60.78
2022-08-25T16:37:11.030Z,60.67
2022-08-25T16:39:43.518Z,60.74
2022-08-25T16:42:12.513Z,60.88
2022-08-25T16:44:42.204Z,60.88
2022-08-25T16:47:13.975Z,60.86
2022-08-25T16:49:41.987Z,61.00
2022-08-25T16:52:30.708Z,61.11
2022-08-25T16:55:15.911Z,61.36
2022-08-25T16:57:47.925Z,61.49
2022-08-25T17:00:17.038Z,61.96
2022-08-25T17:02:45.826Z,62.08
2022-08-25T17:05:14.816Z,62.46
2022-08-25T17:08:03.691Z,62.78
2022-08-25T17:10:36.208Z,63.17
2022-08-25T17:13:05.625Z,63.49
2022-08-25T17:15:34.813Z,63.91
2022-08-25T17:18:04.665Z,64.18
2022-08-25T17:20:34.665Z,64.56
2022-08-25T17:23:12.103Z,64.92
2022-08-25T17:25:43.316Z,65.26
2022-08-25T17:28:12.980Z,65.62
2022-08-25T17:30:42.577Z,65.69
2022-08-25T17:33:11.507Z,65.71
2022-08-25T17:35:40.727Z,65.69
2022-08-25T17:38:10.560Z,65.86
2022-08-25T17:40:40.431Z,65.92
2022-08-25T17:43:09.848Z,66.23
2022-08-25T17:45:39.607Z,66.34
2022-08-25T17:48:09.074Z,66.35
2022-08-25T17:50:38.902Z,66.87
2022-08-25T17:53:09.291Z,66.95
2022-08-25T17:55:39.783Z,67.24
2022-08-25T17:58:16.095Z,67.41
2022-08-25T18:00:46.469Z,67.72
2022-08-25T18:03:15.236Z,67.82
2022-08-25T18:05:45.068Z,68.08
2022-08-25T18:08:15.807Z,68.17
2022-08-25T18:10:49.973Z,68.23
2022-08-25T18:13:19.459Z,68.33
2022-08-25T18:16:09.450Z,68.44
2022-08-25T18:18:39.316Z,68.54
2022-08-25T18:21:16.827Z,68.48
2022-08-25T18:23:58.436Z,68.59
2022-08-25T18:26:27.698Z,68.56
2022-08-25T18:29:05.959Z,68.77
2022-08-25T18:31:37.041Z,68.87
2022-08-25T18:34:10.347Z,69.26
2022-08-25T18:36:43.612Z,69.71
2022-08-25T18:39:34.904Z,70.24
2022-08-25T18:42:08.066Z,70.67
2022-08-25T18:44:36.800Z,70.97
2022-08-25T18:47:07.565Z,71.04
2022-08-25T18:49:36.850Z,71.49
2022-08-25T18:52:06.509Z,71.60
2022-08-25T18:57:39.935Z,71.90
2022-08-25T19:00:18.868Z,72.13
2022-08-25T19:03:18.972Z,72.28
2022-08-25T19:06:16.083Z,72.40
2022-08-25T19:12:46.593Z,72.90
2022-08-25T19:16:10.747Z,73.25
2022-08-25T19:18:54.022Z,73.27
2022-08-25T19:21:38.014Z,73.52
2022-08-25T19:24:08.954Z,73.62
2022-08-25T19:26:47.312Z,73.80
2022-08-25T19:29:23.215Z,73.82
2022-08-25T19:32:06.686Z,74.06
2022-08-25T19:34:42.114Z,73.92
2022-08-25T19:37:14.659Z,74.16
2022-08-25T19:39:53.008Z,74.52
2022-08-25T19:42:34.969Z,74.75
2022-08-25T19:45:15.425Z,75.23
2022-08-25T19:47:45.462Z,75.59
2022-08-25T19:50:16.920Z,75.79
2022-08-25T19:52:45.125Z,76.05
2022-08-25T19:55:14.525Z,76.52
2022-08-25T19:57:43.841Z,76.98
2022-08-25T20:00:16.922Z,77.37
2022-08-25T20:02:46.986Z,77.49
2022-08-25T20:05:23.570Z,78.00
2022-08-25T20:07:54.099Z,78.49
2022-08-25T20:10:24.310Z,78.72
2022-08-25T20:12:55.541Z,79.22
2022-08-25T20:15:25.467Z,79.40
2022-08-25T20:17:56.561Z,79.79
2022-08-25T20:20:32.641Z,79.95
2022-08-25T20:23:21.837Z,80.20
2022-08-25T20:25:51.487Z,80.39
2022-08-25T20:28:20.233Z,80.53
2022-08-25T20:30:48.997Z,80.66
2022-08-25T20:33:22.823Z,80.65
2022-08-25T20:35:53.062Z,80.65
2022-08-25T20:38:21.785Z,80.66
2022-08-25T20:40:50.509Z,80.67
2022-08-25T20:43:20.775Z,80.67
2022-08-25T20:45:49.772Z,80.56
2022-08-25T20:48:18.411Z,80.64
2022-08-25T20:50:57.390Z,80.85
2022-08-25T20:53:26.848Z,80.83
2022-08-25T20:55:55.741Z,80.87
2022-08-25T20:58:24.133Z,80.97
2022-08-25T21:00:55.424Z,80.87
2022-08-25T21:03:24.731Z,80.91
2022-08-25T21:05:54.050Z,80.93
2022-08-25T21:08:23.752Z,81.04
2022-08-25T21:10:54.204Z,81.12
2022-08-25T21:13:22.930Z,81.13
2022-08-25T21:15:51.582Z,81.29
2022-08-25T21:18:20.547Z,81.36
2022-08-25T21:20:49.100Z,81.44
2022-08-25T21:23:17.680Z,81.43
2022-08-25T21:25:46.497Z,81.56
2022-08-25T21:28:15.174Z,81.56
2022-08-25T21:30:44.797Z,81.61
2022-08-25T21:33:16.061Z,81.72
2022-08-25T21:35:44.712Z,81.81
2022-08-25T21:38:15.902Z,81.70
2022-08-25T21:40:45.058Z,81.73
2022-08-25T21:43:13.812Z,81.90
2022-08-25T21:45:46.851Z,82.12
2022-08-25T21:48:16.101Z,82.09
2022-08-25T21:50:44.926Z,82.16
2022-08-25T21:53:13.717Z,82.43
2022-08-25T21:55:43.863Z,82.57
2022-08-25T21:58:12.532Z,82.53
2022-08-25T22:00:44.252Z,82.76
2022-08-25T22:04:02.396Z,82.93
2022-08-25T22:06:31.781Z,83.14
2022-08-25T22:09:00.890Z,83.12
2022-08-25T22:11:29.408Z,83.37
2022-08-25T22:14:06.055Z,83.41
2022-08-25T22:16:36.710Z,83.37
2022-08-25T22:19:07.672Z,83.32
2022-08-25T22:21:41.294Z,83.60
2022-08-25T22:24:10.517Z,83.87
2022-08-25T22:26:40.196Z,83.95
2022-08-25T22:29:09.351Z,84.01
2022-08-25T22:31:38.675Z,84.20
2022-08-25T22:34:07.920Z,84.27
2022-08-25T22:36:38.339Z,84.51
2022-08-25T22:39:07.779Z,84.51
2022-08-25T22:41:36.552Z,84.69
2022-08-25T22:44:10.454Z,84.83
2022-08-25T22:46:39.034Z,84.77
2022-08-25T22:49:08.351Z,84.68
2022-08-25T22:51:37.311Z,84.60
2022-08-25T22:54:06.398Z,84.53
2022-08-25T22:56:39.158Z,84.53
2022-08-25T22:59:10.568Z,84.74
2022-08-25T23:01:39.650Z,85.09
2022-08-25T23:04:08.863Z,85.42
2022-08-25T23:06:40.129Z,85.53
2022-08-25T23:09:10.232Z,85.55
2022-08-25T23:11:39.468Z,85.60
2022-08-25T23:14:10.428Z,85.45
2022-08-25T23:16:41.912Z,85.32
2022-08-25T23:19:13.788Z,85.40
2022-08-25T23:22:00.739Z,85.65
2022-08-25T23:24:30.752Z,85.81
2022-08-25T23:27:01.488Z,85.97
2022-08-25T23:29:31.383Z,86.21
2022-08-25T23:32:00.154Z,86.37
2022-08-25T23:34:29.293Z,86.21
2022-08-25T23:36:58.405Z,86.26
2022-08-25T23:39:27.256Z,86.22
2022-08-25T23:41:55.950Z,85.97
2022-08-25T23:44:25.678Z,85.99
2022-08-25T23:46:54.902Z,86.24
2022-08-25T23:49:24.355Z,86.43
2022-08-25T23:51:55.038Z,86.43
2022-08-25T23:54:31.446Z,86.52
2022-08-25T23:57:00.451Z,86.65
2022-08-25T23:59:30.352Z,86.58
